createdAt,value
2022-10-29T00:02:55.882Z,8.57
2022-10-29T00:06:17.527Z,8.57
2022-10-29T00:08:59.369Z,8.60
2022-10-29T00:11:41.190Z,8.07
2022-10-29T00:14:42.883Z,8.63
2022-10-29T00:18:04.556Z,7.50
2022-10-29T00:20:46.442Z,8.37
2022-10-29T00:23:28.216Z,8.20
2022-10-29T00:26:30.295Z,8.70
2022-10-29T00:29:51.939Z,8.00
2022-10-29T00:32:33.715Z,8.87
2022-10-29T00:35:15.486Z,8.57
2022-10-29T00:37:57.692Z,7.67
2022-10-29T00:40:59.523Z,7.97
2022-10-29T00:44:02.310Z,8.47
2022-10-29T00:47:09.767Z,7.53
2022-10-29T00:50:04.487Z,8.37
2022-10-29T00:52:49.767Z,8.77
2022-10-29T00:55:51.732Z,8.20
2022-10-29T00:59:13.354Z,8.57
2022-10-29T01:01:56.248Z,8.27
2022-10-29T01:04:39.736Z,8.80
2022-10-29T01:07:22.801Z,8.27
2022-10-29T01:10:40.818Z,7.83
2022-10-29T01:13:25.079Z,8.20
2022-10-29T01:16:12.703Z,7.40
2022-10-29T01:19:06.603Z,7.83
2022-10-29T01:21:53.568Z,8.03
2022-10-29T01:24:53.907Z,7.40
2022-10-29T01:28:01.502Z,7.33
2022-10-29T01:30:54.748Z,8.57
2022-10-29T01:33:46.147Z,7.30
2022-10-29T01:37:00.768Z,7.63
2022-10-29T01:40:07.524Z,7.13
2022-10-29T01:43:15.267Z,7.37
2022-10-29T01:46:39.978Z,7.70
2022-10-29T01:49:28.439Z,8.30
2022-10-29T01:52:14.246Z,7.73
2022-10-29T01:55:15.974Z,7.43
2022-10-29T01:58:37.943Z,7.30
2022-10-29T02:01:46.875Z,7.37
2022-10-29T02:04:46.827Z,7.07
2022-10-29T02:08:03.600Z,7.00
2022-10-29T02:11:11.257Z,7.47
2022-10-29T02:14:04.521Z,7.90
2022-10-29T02:16:48.575Z,7.47
2022-10-29T02:19:53.912Z,7.10
2022-10-29T02:23:15.808Z,6.20
2022-10-29T02:25:57.658Z,6.93
2022-10-29T02:28:39.685Z,7.03
2022-10-29T02:31:41.435Z,6.77
2022-10-29T02:35:03.092Z,7.57
2022-10-29T02:38:24.760Z,7.33
2022-10-29T02:41:26.438Z,8.20
2022-10-29T02:44:08.246Z,8.00
2022-10-29T02:46:50.194Z,7.50
2022-10-29T02:49:51.930Z,7.57
2022-10-29T02:53:13.560Z,8.07
2022-10-29T02:55:55.312Z,8.40
2022-10-29T02:58:37.283Z,7.40
2022-10-29T03:01:39.114Z,7.47
2022-10-29T03:05:00.844Z,7.77
2022-10-29T03:07:42.616Z,7.43
2022-10-29T03:10:24.334Z,7.83
2022-10-29T03:13:06.168Z,7.63
2022-10-29T03:16:08.328Z,7.90
2022-10-29T03:19:10.037Z,6.83
2022-10-29T03:22:31.685Z,7.27
2022-10-29T03:25:13.459Z,8.17
2022-10-29T03:27:55.622Z,8.00
2022-10-29T03:30:57.751Z,7.47
2022-10-29T03:34:19.404Z,7.87
2022-10-29T03:37:41.031Z,6.80
2022-10-29T03:40:42.772Z,7.80
2022-10-29T03:43:24.864Z,8.37
2022-10-29T03:46:07.038Z,7.57
2022-10-29T03:49:09.991Z,7.30
2022-10-29T03:52:31.660Z,7.10
2022-10-29T03:55:13.441Z,7.70
2022-10-29T03:57:56.624Z,7.60
2022-10-29T04:00:58.656Z,6.53
2022-10-29T04:04:20.305Z,7.67
2022-10-29T04:07:02.135Z,7.13
2022-10-29T04:09:44.060Z,8.17
2022-10-29T04:12:45.792Z,7.27
2022-10-29T04:16:07.432Z,6.97
2022-10-29T04:18:49.992Z,6.90
2022-10-29T04:23:25.525Z,7.03
2022-10-29T04:28:43.008Z,5.93
2022-10-29T04:32:05.113Z,7.07
2022-10-29T04:35:06.790Z,6.47
2022-10-29T04:37:48.534Z,6.63
2022-10-29T04:40:30.286Z,7.43
2022-10-29T04:43:32.123Z,6.07
2022-10-29T04:46:53.748Z,6.77
2022-10-29T04:49:35.576Z,6.83
2022-10-29T04:52:17.379Z,6.67
2022-10-29T04:55:19.149Z,6.40
2022-10-29T04:58:40.782Z,6.33
2022-10-29T05:01:22.944Z,6.97
2022-10-29T05:04:04.969Z,7.00
2022-10-29T05:07:06.738Z,6.40
2022-10-29T05:10:28.481Z,6.20
2022-10-29T05:13:50.186Z,5.50
2022-10-29T05:16:51.874Z,6.20
2022-10-29T05:19:33.637Z,6.87
2022-10-29T05:22:15.378Z,6.50
2022-10-29T05:25:17.101Z,5.83
2022-10-29T05:28:24.603Z,6.20
2022-10-29T05:31:06.454Z,6.27
2022-10-29T05:33:50.008Z,6.30
2022-10-29T05:36:54.165Z,6.83
2022-10-29T05:40:15.805Z,5.63
2022-10-29T05:42:57.922Z,5.83
2022-10-29T05:45:40.201Z,5.70
2022-10-29T05:48:21.971Z,5.43
2022-10-29T05:51:23.773Z,5.47
2022-10-29T05:54:25.603Z,5.67
2022-10-29T05:57:47.285Z,5.30
2022-10-29T06:01:08.973Z,5.60
2022-10-29T06:04:10.789Z,5.10
2022-10-29T06:06:52.663Z,5.40
2022-10-29T06:09:34.451Z,5.47
2022-10-29T06:12:36.167Z,5.30
2022-10-29T06:15:57.984Z,4.63
2022-10-29T06:18:39.755Z,5.03
2022-10-29T06:21:21.531Z,5.00
2022-10-29T06:24:23.438Z,4.67
2022-10-29T06:27:45.113Z,5.10
2022-10-29T06:31:06.767Z,4.80
2022-10-29T06:34:08.475Z,4.63
2022-10-29T06:36:50.240Z,5.10
2022-10-29T06:39:31.968Z,4.63
2022-10-29T06:42:33.708Z,5.00
2022-10-29T06:45:55.746Z,4.40
2022-10-29T06:48:37.570Z,4.77
2022-10-29T06:51:19.382Z,5.00
2022-10-29T06:54:21.179Z,4.90
2022-10-29T06:57:42.845Z,4.33
2022-10-29T07:00:24.940Z,4.97
2022-10-29T07:03:07.349Z,4.97
2022-10-29T07:06:15.280Z,5.17
2022-10-29T07:09:36.933Z,5.17
2022-10-29T07:13:01.168Z,5.50
2022-10-29T07:16:02.969Z,4.97
2022-10-29T07:18:44.776Z,5.00
2022-10-29T07:21:26.561Z,4.60
2022-10-29T07:24:28.570Z,4.60
2022-10-29T07:27:50.283Z,4.53
2022-10-29T07:30:33.083Z,4.80
2022-10-29T07:33:14.943Z,5.17
2022-10-29T07:36:17.764Z,5.40
2022-10-29T07:39:39.413Z,4.90
2022-10-29T07:43:01.148Z,5.30
2022-10-29T07:46:04.608Z,5.47
2022-10-29T07:48:47.002Z,5.10
2022-10-29T07:51:28.782Z,5.93
2022-10-29T07:54:30.547Z,5.33
2022-10-29T07:57:53.000Z,5.83
2022-10-29T08:00:38.153Z,5.33
2022-10-29T08:03:20.135Z,5.43
2022-10-29T08:06:22.443Z,5.73
2022-10-29T08:09:44.203Z,5.97
2022-10-29T08:13:09.450Z,5.30
2022-10-29T08:16:11.143Z,5.33
2022-10-29T08:18:52.936Z,5.03
2022-10-29T08:21:34.672Z,5.33
2022-10-29T08:24:16.502Z,5.60
2022-10-29T08:27:18.196Z,6.37
2022-10-29T08:30:19.913Z,6.00
2022-10-29T08:33:01.886Z,5.13
2022-10-29T08:36:03.859Z,5.20
2022-10-29T08:39:25.490Z,5.63
2022-10-29T08:42:27.257Z,5.83
2022-10-29T08:45:14.827Z,6.13
2022-10-29T08:48:27.820Z,6.00
2022-10-29T08:51:24.847Z,6.07
2022-10-29T08:54:32.500Z,6.30
2022-10-29T08:57:54.573Z,6.00
2022-10-29T09:00:38.632Z,6.30
2022-10-29T09:03:20.640Z,5.97
2022-10-29T09:06:28.151Z,6.23
2022-10-29T09:09:55.091Z,6.20
2022-10-29T09:12:48.118Z,5.97
2022-10-29T09:16:16.128Z,6.67
2022-10-29T09:19:23.203Z,6.17
2022-10-29T09:22:42.816Z,6.47
2022-10-29T09:25:43.228Z,7.17
2022-10-29T09:28:43.429Z,6.77
2022-10-29T09:32:00.468Z,7.03
2022-10-29T09:35:30.959Z,7.10
2022-10-29T09:39:02.519Z,6.80
2022-10-29T09:42:04.742Z,7.00
2022-10-29T09:44:51.959Z,6.90
2022-10-29T09:47:48.769Z,6.80
2022-10-29T09:50:33.443Z,8.07
2022-10-29T09:53:55.140Z,7.83
2022-10-29T09:56:41.407Z,7.80
2022-10-29T09:59:34.959Z,6.63
2022-10-29T10:02:56.206Z,7.20
2022-10-29T10:06:01.411Z,7.73
2022-10-29T10:09:41.720Z,7.63
2022-10-29T10:12:45.804Z,8.97
2022-10-29T10:15:37.324Z,9.63
2022-10-29T10:18:25.361Z,10.03
2022-10-29T10:21:34.695Z,8.00
2022-10-29T10:24:56.373Z,9.90
2022-10-29T10:27:38.152Z,10.30
2022-10-29T10:30:23.557Z,10.60
2022-10-29T10:33:44.222Z,11.20
2022-10-29T10:37:05.861Z,9.87
2022-10-29T10:40:27.798Z,10.77
2022-10-29T10:43:42.021Z,11.97
2022-10-29T10:46:30.714Z,11.83
2022-10-29T10:49:15.092Z,11.93
2022-10-29T10:52:18.332Z,11.50
2022-10-29T10:55:40.265Z,11.60
2022-10-29T10:58:40.589Z,11.97
2022-10-29T11:01:41.299Z,12.17
2022-10-29T11:04:30.087Z,11.23
2022-10-29T11:07:34.138Z,12.20
2022-10-29T11:10:36.571Z,11.90
2022-10-29T11:13:58.213Z,10.40
2022-10-29T11:16:52.418Z,10.80
2022-10-29T11:19:44.969Z,10.87
2022-10-29T11:22:52.408Z,9.30
2022-10-29T11:26:14.471Z,10.40
2022-10-29T11:29:19.422Z,10.83
2022-10-29T11:32:09.872Z,10.53
2022-10-29T11:35:04.273Z,10.67
2022-10-29T11:38:27.381Z,10.63
2022-10-29T11:41:42.132Z,10.27
2022-10-29T11:45:03.863Z,9.47
2022-10-29T11:48:11.217Z,10.63
2022-10-29T11:51:02.432Z,9.43
2022-10-29T11:54:05.716Z,9.90
2022-10-29T11:57:36.099Z,9.70
2022-10-29T12:00:23.913Z,9.20
2022-10-29T14:42:40.344Z,6.03
2022-10-29T14:45:28.527Z,6.03
2022-10-29T14:48:01.278Z,6.00
2022-10-29T14:50:30.191Z,6.13
2022-10-29T14:53:01.175Z,6.93
2022-10-29T14:55:33.736Z,7.47
2022-10-29T14:58:12.852Z,6.50
2022-10-29T15:00:59.019Z,6.30
2022-10-29T15:03:30.215Z,6.70
2022-10-29T15:06:20.139Z,7.10
2022-10-29T15:08:54.775Z,6.60
2022-10-29T15:11:39.485Z,6.83
2022-10-29T15:14:30.104Z,7.20
2022-10-29T15:16:58.098Z,7.20
2022-10-29T15:19:25.173Z,7.63
2022-10-29T15:21:52.403Z,8.03
2022-10-29T15:24:22.816Z,8.00
2022-10-29T15:26:59.043Z,8.30
2022-10-29T15:29:36.248Z,7.10
2022-10-29T15:32:05.930Z,7.53
2022-10-29T15:34:37.055Z,8.67
2022-10-29T15:37:19.044Z,7.83
2022-10-29T15:40:14.963Z,9.07
2022-10-29T15:42:45.454Z,8.30
2022-10-29T15:47:53.114Z,8.67
2022-10-29T15:50:32.513Z,9.00
2022-10-29T15:53:05.633Z,8.67
2022-10-29T15:55:35.676Z,8.40
2022-10-29T15:58:14.297Z,8.60
2022-10-29T16:00:44.359Z,8.73
2022-10-29T16:03:15.608Z,9.30
2022-10-29T16:05:45.597Z,9.53
2022-10-29T16:08:22.471Z,9.43
2022-10-29T16:10:49.673Z,9.13
2022-10-29T16:13:18.032Z,9.17
2022-10-29T16:15:45.188Z,8.80
2022-10-29T16:18:16.370Z,9.43
2022-10-29T16:20:43.700Z,8.70
2022-10-29T16:23:11.976Z,9.03
2022-10-29T16:25:39.856Z,8.87
2022-10-29T16:28:07.335Z,9.30
2022-10-29T16:30:34.818Z,10.30
2022-10-29T16:33:09.976Z,8.83
2022-10-29T16:35:43.748Z,8.83
2022-10-29T16:38:11.211Z,8.50
2022-10-29T16:40:39.105Z,10.07
2022-10-29T16:43:06.061Z,9.10
2022-10-29T16:45:33.171Z,9.53
2022-10-29T16:48:00.491Z,9.63
2022-10-29T16:50:30.850Z,8.97
2022-10-29T16:53:06.511Z,9.47
2022-10-29T16:55:38.651Z,9.03
2022-10-29T16:58:23.661Z,9.20
2022-10-29T17:00:50.774Z,9.10
2022-10-29T17:03:18.572Z,9.43
2022-10-29T17:05:47.142Z,9.17
2022-10-29T17:08:14.101Z,9.37
2022-10-29T17:10:41.839Z,9.43
2022-10-29T17:13:14.402Z,10.23
2022-10-29T17:15:41.994Z,10.17
2022-10-29T17:18:09.509Z,9.33
2022-10-29T17:20:36.575Z,10.20
2022-10-29T17:23:03.536Z,9.20
2022-10-29T17:25:30.450Z,9.47
2022-10-29T17:28:09.494Z,9.60
2022-10-29T17:30:42.095Z,9.67
2022-10-29T17:33:09.858Z,9.90
2022-10-29T17:35:36.715Z,10.07
2022-10-29T17:38:03.778Z,9.40
2022-10-29T17:40:30.760Z,9.47
2022-10-29T17:42:58.138Z,10.10
2022-10-29T17:45:25.574Z,9.13
2022-10-29T17:48:00.968Z,9.33
2022-10-29T17:50:28.544Z,9.17
2022-10-29T17:52:57.831Z,9.20
2022-10-29T17:55:24.976Z,8.33
2022-10-29T17:57:52.047Z,9.20
2022-10-29T18:00:19.148Z,8.53
2022-10-29T18:02:49.899Z,8.50
2022-10-29T18:05:20.744Z,8.50
2022-10-29T18:07:47.784Z,8.97
2022-10-29T18:10:16.812Z,9.80
2022-10-29T18:12:43.946Z,9.33
2022-10-29T18:15:10.961Z,8.60
2022-10-29T18:17:38.192Z,8.60
2022-10-29T18:20:05.576Z,9.13
2022-10-29T18:22:32.764Z,8.40
2022-10-29T18:24:59.779Z,9.07
2022-10-29T18:27:27.192Z,9.73
2022-10-29T18:29:54.210Z,9.33
2022-10-29T18:32:21.090Z,8.73
2022-10-29T18:34:50.490Z,9.40
2022-10-29T18:37:17.472Z,8.80
2022-10-29T18:39:46.683Z,9.87
2022-10-29T18:42:16.525Z,9.47
2022-10-29T18:44:55.849Z,9.43
2022-10-29T18:47:23.061Z,10.37
2022-10-29T18:49:49.996Z,9.83
2022-10-29T18:52:17.427Z,9.90
2022-10-29T18:54:44.555Z,10.67
2022-10-29T18:57:15.323Z,9.73
2022-10-29T18:59:46.135Z,9.97
2022-10-29T19:02:14.763Z,8.80
2022-10-29T19:04:42.093Z,10.27
2022-10-29T19:07:08.979Z,10.30
2022-10-29T19:09:36.056Z,9.40
2022-10-29T19:12:02.991Z,9.83
2022-10-29T19:14:30.022Z,9.90
2022-10-29T19:16:56.912Z,9.77
2022-10-29T19:19:24.325Z,9.67
2022-10-29T19:21:51.436Z,10.30
2022-10-29T19:24:19.231Z,10.30
2022-10-29T19:26:46.217Z,10.33
2022-10-29T19:29:13.583Z,10.33
2022-10-29T19:31:43.857Z,9.03
2022-10-29T19:34:10.794Z,9.97
2022-10-29T19:36:40.309Z,9.70
2022-10-29T19:39:08.016Z,10.60
2022-10-29T19:41:35.412Z,9.50
2022-10-29T19:44:02.799Z,9.60
2022-10-29T19:46:30.443Z,9.67
2022-10-29T19:48:58.450Z,9.57
2022-10-29T19:51:25.551Z,9.40
2022-10-29T19:53:52.792Z,9.30
2022-10-29T19:56:22.014Z,8.63
2022-10-29T19:59:04.743Z,8.97
2022-10-29T20:01:31.838Z,9.10
2022-10-29T20:03:59.083Z,9.17
2022-10-29T20:06:26.010Z,9.77
2022-10-29T20:08:53.075Z,10.07
2022-10-29T20:11:20.151Z,8.47
2022-10-29T20:13:51.416Z,8.97
2022-10-29T20:16:21.388Z,9.60
2022-10-29T20:18:49.595Z,10.33
2022-10-29T20:21:17.359Z,9.67
2022-10-29T20:23:45.064Z,10.00
2022-10-29T20:26:12.688Z,10.23
2022-10-29T20:28:39.781Z,10.43
2022-10-29T20:31:19.285Z,10.87
2022-10-29T20:33:55.274Z,9.13
2022-10-29T20:36:28.788Z,10.03
2022-10-29T20:38:56.126Z,11.23
2022-10-29T20:41:23.624Z,10.20
2022-10-29T20:43:59.613Z,11.40
2022-10-29T20:46:27.164Z,10.57
2022-10-29T20:48:54.123Z,11.80
2022-10-29T20:51:22.882Z,11.67
2022-10-29T20:53:51.086Z,11.47
2022-10-29T20:56:20.008Z,11.87
2022-10-29T20:58:46.963Z,11.80
2022-10-29T21:01:16.427Z,11.80
2022-10-29T21:03:44.406Z,11.97
2022-10-29T21:06:17.185Z,12.33
2022-10-29T21:09:07.677Z,12.10
2022-10-29T21:11:34.735Z,13.10
2022-10-29T21:14:01.793Z,12.53
2022-10-29T21:16:29.287Z,12.40
2022-10-29T21:19:01.094Z,12.93
2022-10-29T21:21:29.460Z,13.27
2022-10-29T21:23:57.340Z,14.10
2022-10-29T21:26:26.083Z,13.43
2022-10-29T21:28:53.990Z,14.43
2022-10-29T21:31:21.998Z,13.03
2022-10-29T21:33:55.318Z,15.07
2022-10-29T21:36:23.234Z,14.90
2022-10-29T21:38:50.430Z,14.93
2022-10-29T21:41:18.380Z,14.47
2022-10-29T21:43:45.652Z,14.97
2022-10-29T21:46:12.614Z,14.40
2022-10-29T21:48:39.584Z,16.40
2022-10-29T21:51:11.914Z,13.97
2022-10-29T21:53:38.903Z,15.13
2022-10-29T21:56:07.992Z,14.27
2022-10-29T21:58:35.806Z,15.27
2022-10-29T22:01:10.888Z,15.97
2022-10-29T22:03:41.384Z,15.60
2022-10-29T22:06:12.750Z,14.77
2022-10-29T22:08:40.376Z,16.30
2022-10-29T22:11:07.857Z,16.03
2022-10-29T22:13:35.555Z,17.20
2022-10-29T22:16:04.656Z,16.47
2022-10-29T22:18:32.843Z,17.27
2022-10-29T22:21:13.596Z,17.23
2022-10-29T22:23:49.951Z,17.63
2022-10-29T22:26:18.856Z,17.80
2022-10-29T22:28:47.213Z,16.93
2022-10-29T22:31:15.275Z,17.20
2022-10-29T22:33:43.467Z,17.40
2022-10-29T22:36:22.495Z,17.67
2022-10-29T22:38:57.461Z,17.43
2022-10-29T22:41:28.565Z,16.60
2022-10-29T22:43:58.855Z,15.97
2022-10-29T22:46:27.151Z,17.73
2022-10-29T22:48:54.182Z,16.00
2022-10-29T22:51:23.627Z,15.50
2022-10-29T22:53:52.010Z,15.70
2022-10-29T22:56:25.877Z,16.23
2022-10-29T22:58:54.715Z,17.03
2022-10-29T23:01:45.491Z,15.73
2022-10-29T23:04:13.330Z,15.87
2022-10-29T23:06:40.208Z,15.70
2022-10-29T23:09:07.478Z,15.83
2022-10-29T23:11:38.898Z,15.80
2022-10-29T23:14:06.361Z,15.20
2022-10-29T23:16:35.278Z,16.73
2022-10-29T23:19:09.955Z,15.50
2022-10-29T23:21:39.402Z,16.20
2022-10-29T23:24:06.776Z,17.90
2022-10-29T23:26:33.776Z,16.13
2022-10-29T23:29:00.677Z,16.40
2022-10-29T23:31:28.547Z,16.67
2022-10-29T23:33:57.212Z,17.70
2022-10-29T23:36:43.994Z,17.13
2022-10-29T23:39:21.120Z,15.90
2022-10-29T23:41:47.973Z,16.13
2022-10-29T23:44:15.060Z,16.00
2022-10-29T23:46:41.952Z,16.00
2022-10-29T23:49:09.044Z,16.70
2022-10-29T23:51:36.217Z,16.40
2022-10-29T23:54:03.220Z,15.60
2022-10-29T23:56:30.138Z,16.30
2022-10-29T23:58:57.277Z,15.77
